Time;durP1;ratioP1;P1;durP2;ratioP2;P2;SDS_P1;SDS_P2;PMS_P1;PMS_P2;Temp;Humidity;BMP_temperature;BMP_pressure;BME280_temperature;BME280_humidity;BME280_pressure;Samples;Min_cycle;Max_cycle;Signal;HPM_P1;HPM_P2
2021/11/24 00:02:03;;;;;;;1.90;0.30;;;;;;;;;;5057530;28;20037;-65
2021/11/24 00:04:34;;;;;;;1.90;0.50;;;;;;;;;;5067148;28;20025;-67
2021/11/24 00:07:05;;;;;;;1.60;0.40;;;;;;;;;;5068556;28;20036;-66
2021/11/24 00:09:38;;;;;;;1.23;0.50;;;;;;;;;;5072035;28;20056;-66
2021/11/24 00:12:08;;;;;;;1.70;0.30;;;;;;;;;;5071232;28;20086;-66
2021/11/24 00:14:39;;;;;;;1.30;0.40;;;;;;;;;;5052632;28;20399;-66
2021/11/24 00:17:13;;;;;;;1.27;0.40;;;;;;;;;;5052683;28;20069;-66
2021/11/24 00:19:43;;;;;;;0.80;0.40;;;;;;;;;;5069101;28;20033;-66
2021/11/24 00:22:14;;;;;;;1.43;0.50;;;;;;;;;;5066515;28;20029;-66
2021/11/24 00:24:45;;;;;;;0.20;0.20;;;;;;;;;;5067219;28;20052;-66
2021/11/24 00:27:16;;;;;;;0.37;0.10;;;;;;;;;;5066885;28;20058;-66
2021/11/24 00:29:52;;;;;;;5.33;0.33;;;;;;;;;;5068645;28;20107;-66
2021/11/24 00:32:27;;;;;;;0.50;0.30;;;;;;;;;;5071715;28;20529;-66
2021/11/24 00:34:58;;;;;;;1.20;0.50;;;;;;;;;;5072083;28;20024;-67
2021/11/24 00:37:32;;;;;;;2.63;1.30;;;;;;;;;;5072288;28;20101;-66
2021/11/24 00:40:06;;;;;;;5.00;1.13;;;;;;;;;;5072320;28;20029;-66
2021/11/24 00:42:44;;;;;;;1.40;0.57;;;;;;;;;;5067870;28;20024;-66
2021/11/24 00:45:15;;;;;;;0.53;0.20;;;;;;;;;;5067024;28;20741;-67
2021/11/24 00:47:46;;;;;;;0.63;0.30;;;;;;;;;;5066733;28;20028;-66
2021/11/24 00:50:20;;;;;;;0.67;0.37;;;;;;;;;;5066554;28;20028;-66
2021/11/24 00:52:52;;;;;;;5.40;1.13;;;;;;;;;;5069747;28;20031;-66
2021/11/24 00:55:23;;;;;;;3.67;0.80;;;;;;;;;;5071954;28;20016;-66
2021/11/24 00:57:52;;;;;;;1.03;0.40;;;;;;;;;;5071730;28;20453;-66
2021/11/24 01:00:23;;;;;;;0.77;0.40;;;;;;;;;;5072135;28;20418;-66
2021/11/24 01:02:59;;;;;;;0.60;0.50;;;;;;;;;;5070939;28;20483;-66
2021/11/24 01:05:36;;;;;;;2.13;0.40;;;;;;;;;;5066821;28;20059;-67
2021/11/24 01:08:10;;;;;;;2.10;0.37;;;;;;;;;;5066737;28;20534;-64
2021/11/24 01:10:41;;;;;;;0.30;0.30;;;;;;;;;;5066577;28;20080;-66
2021/11/24 01:13:22;;;;;;;0.80;0.27;;;;;;;;;;5066282;28;20056;-65
2021/11/24 01:15:49;;;;;;;0.57;0.40;;;;;;;;;;5071564;28;20417;-65
2021/11/24 01:18:16;;;;;;;2.73;1.33;;;;;;;;;;5071265;28;20040;-66
2021/11/24 01:20:46;;;;;;;0.77;0.50;;;;;;;;;;5071362;28;20051;-66
2021/11/24 01:23:13;;;;;;;1.03;0.50;;;;;;;;;;5069910;28;20024;-66
2021/11/24 01:25:40;;;;;;;4.60;2.60;;;;;;;;;;5070284;28;20531;-66
2021/11/24 01:28:10;;;;;;;2.17;1.10;;;;;;;;;;5066111;28;20021;-66
2021/11/24 01:30:37;;;;;;;2.80;1.70;;;;;;;;;;5065937;28;20082;-66
2021/11/24 01:33:04;;;;;;;1.30;0.50;;;;;;;;;;5065945;28;20078;-65
2021/11/24 01:35:31;;;;;;;1.07;0.50;;;;;;;;;;5065702;28;20111;-65
2021/11/24 01:37:58;;;;;;;2.97;0.70;;;;;;;;;;5070974;28;20115;-66
2021/11/24 01:40:24;;;;;;;0.40;0.20;;;;;;;;;;5071793;28;20024;-66
2021/11/24 01:42:51;;;;;;;1.13;0.70;;;;;;;;;;5070843;28;20086;-65
2021/11/24 01:45:19;;;;;;;1.40;0.90;;;;;;;;;;5071270;28;20107;-65
2021/11/24 01:47:47;;;;;;;8.50;4.47;;;;;;;;;;5071391;28;20402;-66
2021/11/24 01:50:14;;;;;;;5.97;3.37;;;;;;;;;;5066245;28;20040;-66
2021/11/24 01:52:41;;;;;;;13.07;3.40;;;;;;;;;;5065600;28;20027;-67
2021/11/24 01:55:10;;;;;;;4.90;2.00;;;;;;;;;;5067276;28;20166;-64
2021/11/24 01:57:37;;;;;;;3.00;1.33;;;;;;;;;;5069506;28;20067;-65
2021/11/24 02:00:05;;;;;;;5.13;1.80;;;;;;;;;;5073817;28;20028;-65
2021/11/24 02:02:32;;;;;;;1.07;0.70;;;;;;;;;;5074160;28;20028;-63
2021/11/24 02:04:59;;;;;;;3.80;0.73;;;;;;;;;;5074785;28;20024;-66
2021/11/24 02:07:26;;;;;;;1.07;0.60;;;;;;;;;;5074890;28;20035;-65
2021/11/24 02:09:53;;;;;;;15.80;1.00;;;;;;;;;;5075008;28;20109;-63
2021/11/24 02:12:19;;;;;;;4.03;1.23;;;;;;;;;;5070345;28;20020;-65
2021/11/24 02:14:46;;;;;;;1.37;0.73;;;;;;;;;;5069228;28;20035;-65
2021/11/24 02:17:16;;;;;;;2.67;1.00;;;;;;;;;;5069525;28;20471;-66
2021/11/24 02:19:44;;;;;;;2.77;1.03;;;;;;;;;;5069025;28;20040;-67
2021/11/24 02:22:11;;;;;;;6.83;3.30;;;;;;;;;;5073330;28;20441;-64
2021/11/24 02:24:39;;;;;;;10.30;4.00;;;;;;;;;;5074275;28;20518;-64
2021/11/24 02:27:07;;;;;;;8.53;3.87;;;;;;;;;;5057071;28;20117;-62
2021/11/24 02:29:34;;;;;;;3.40;1.80;;;;;;;;;;5073872;28;20058;-64
2021/11/24 02:32:01;;;;;;;7.70;2.20;;;;;;;;;;5073916;28;20029;-66
2021/11/24 02:34:29;;;;;;;6.00;2.20;;;;;;;;;;5069445;28;20443;-65
2021/11/24 02:36:57;;;;;;;5.50;1.80;;;;;;;;;;5069198;28;20256;-65
2021/11/24 02:39:29;;;;;;;4.97;2.17;;;;;;;;;;5069217;28;20483;-63
2021/11/24 02:41:59;;;;;;;6.80;2.37;;;;;;;;;;5069179;28;20115;-64
2021/11/24 02:44:34;;;;;;;9.07;3.17;;;;;;;;;;5072144;28;20487;-64
2021/11/24 02:47:19;;;;;;;7.50;3.23;;;;;;;;;;5073666;28;20028;-64
2021/11/24 02:50:03;;;;;;;10.02;2.85;;;;;;;;;;5074027;28;20028;-64
2021/11/24 02:52:37;;;;;;;5.00;2.27;;;;;;;;;;5073747;28;20129;-66
2021/11/24 02:55:09;;;;;;;5.73;2.03;;;;;;;;;;5072876;28;20394;-64
2021/11/24 02:57:48;;;;;;;5.60;2.37;;;;;;;;;;5068432;28;20036;-63
2021/11/24 03:00:20;;;;;;;5.33;2.37;;;;;;;;;;5068315;28;20024;-65
2021/11/24 03:02:50;;;;;;;3.93;1.90;;;;;;;;;;5067797;28;20036;-63
2021/11/24 03:05:23;;;;;;;4.70;2.10;;;;;;;;;;5067216;28;20032;-63
2021/11/24 03:07:54;;;;;;;6.27;2.20;;;;;;;;;;5056182;28;20028;-64
2021/11/24 03:10:28;;;;;;;6.23;3.07;;;;;;;;;;5073631;28;20055;-65
2021/11/24 03:13:02;;;;;;;6.13;2.87;;;;;;;;;;5073520;28;20031;-64
2021/11/24 03:15:34;;;;;;;5.68;2.50;;;;;;;;;;5073097;28;20025;-63
2021/11/24 03:18:05;;;;;;;5.23;2.37;;;;;;;;;;5071717;28;20430;-65
2021/11/24 03:20:38;;;;;;;7.20;2.40;;;;;;;;;;5068332;28;21349;-65
2021/11/24 03:23:12;;;;;;;5.33;1.90;;;;;;;;;;5067876;28;20048;-64
2021/11/24 03:25:50;;;;;;;8.30;2.10;;;;;;;;;;5068119;28;20474;-64
2021/11/24 03:28:21;;;;;;;5.80;2.33;;;;;;;;;;5069856;28;20105;-63
2021/11/24 03:30:52;;;;;;;3.67;1.73;;;;;;;;;;5071692;28;20126;-65
2021/11/24 03:33:23;;;;;;;3.93;2.03;;;;;;;;;;5072842;28;20032;-64
2021/11/24 03:35:56;;;;;;;4.47;1.80;;;;;;;;;;5072870;28;20099;-66
2021/11/24 03:38:30;;;;;;;11.07;2.40;;;;;;;;;;5072905;28;20064;-66
2021/11/24 03:41:04;;;;;;;5.17;1.93;;;;;;;;;;5050484;28;20021;-64
2021/11/24 03:43:46;;;;;;;;;;;;;;;;;;;;;
2021/11/24 03:46:22;;;;;;;7.37;2.57;;;;;;;;;;5067317;28;20020;-65
2021/11/24 03:48:56;;;;;;;4.73;2.00;;;;;;;;;;5067391;28;20025;-63
2021/11/24 03:51:27;;;;;;;6.33;1.80;;;;;;;;;;5071045;28;20024;-63
2021/11/24 03:54:16;;;;;;;4.20;1.90;;;;;;;;;;5071501;28;20491;-64
2021/11/24 03:56:51;;;;;;;5.97;2.43;;;;;;;;;;5064253;28;20033;-61
2021/11/24 03:59:20;;;;;;;6.32;2.30;;;;;;;;;;5071502;28;20020;-62
2021/11/24 04:01:51;;;;;;;4.23;1.67;;;;;;;;;;5067553;28;20103;-62
2021/11/24 04:04:22;;;;;;;3.30;1.40;;;;;;;;;;5047659;28;20055;-62
2021/11/24 04:06:50;;;;;;;4.03;1.80;;;;;;;;;;5043840;28;20647;-63
2021/11/24 04:09:32;;;;;;;8.20;2.97;;;;;;;;;;5047240;28;20120;-63
2021/11/24 04:12:05;;;;;;;7.97;2.70;;;;;;;;;;5045902;28;20471;-63
2021/11/24 04:14:36;;;;;;;4.97;1.90;;;;;;;;;;5062763;28;20025;-63
2021/11/24 04:17:08;;;;;;;6.53;2.63;;;;;;;;;;5071757;28;20421;-63
2021/11/24 04:19:37;;;;;;;7.30;2.10;;;;;;;;;;5070674;28;20059;-62
2021/11/24 04:22:06;;;;;;;9.23;2.40;;;;;;;;;;5072270;28;20028;-62
2021/11/24 04:24:34;;;;;;;7.40;3.03;;;;;;;;;;5071608;28;20020;-62
2021/11/24 04:27:02;;;;;;;5.63;1.97;;;;;;;;;;5066658;28;20028;-63
2021/11/24 04:29:34;;;;;;;9.13;2.43;;;;;;;;;;5066878;28;20483;-62
2021/11/24 04:32:01;;;;;;;7.07;2.03;;;;;;;;;;5066433;28;20366;-63
2021/11/24 04:34:30;;;;;;;5.63;1.97;;;;;;;;;;5052737;28;20107;-62
2021/11/24 04:36:56;;;;;;;5.60;2.07;;;;;;;;;;5054906;28;20439;-63
2021/11/24 04:39:23;;;;;;;5.07;2.17;;;;;;;;;;5044222;28;20021;-61
2021/11/24 04:41:50;;;;;;;3.93;2.10;;;;;;;;;;5065386;28;20036;-63
2021/11/24 04:44:17;;;;;;;5.53;2.20;;;;;;;;;;5052287;28;20100;-62
2021/11/24 04:46:45;;;;;;;7.03;2.33;;;;;;;;;;5051525;28;20013;-64
2021/11/24 04:49:12;;;;;;;4.60;2.03;;;;;;;;;;5046658;28;20112;-63
2021/11/24 04:51:39;;;;;;;5.23;2.23;;;;;;;;;;5046821;28;20094;-63
2021/11/24 04:54:05;;;;;;;9.50;2.27;;;;;;;;;;5046507;28;20442;-63
2021/11/24 04:56:32;;;;;;;5.70;2.07;;;;;;;;;;5046663;28;20041;-63
2021/11/24 04:59:01;;;;;;;7.23;2.10;;;;;;;;;;5053008;28;20502;-63
2021/11/24 05:01:28;;;;;;;4.83;1.87;;;;;;;;;;5051525;28;20032;-63
2021/11/24 05:03:55;;;;;;;6.60;2.37;;;;;;;;;;5054540;28;20033;-63
2021/11/24 05:06:23;;;;;;;7.20;2.60;;;;;;;;;;5071709;28;20074;-63
2021/11/24 05:08:50;;;;;;;5.10;1.80;;;;;;;;;;5072148;28;20056;-63
2021/11/24 05:11:18;;;;;;;5.97;2.10;;;;;;;;;;5064795;28;20150;-63
2021/11/24 05:13:52;;;;;;;3.47;1.80;;;;;;;;;;5046650;28;20567;-63
2021/11/24 05:16:20;;;;;;;5.95;2.05;;;;;;;;;;5046285;28;20035;-63
2021/11/24 05:18:48;;;;;;;8.80;1.80;;;;;;;;;;5047062;28;20041;-63
2021/11/24 05:21:35;;;;;;;4.43;1.83;;;;;;;;;;5071681;28;20048;-63
2021/11/24 05:24:03;;;;;;;3.37;1.40;;;;;;;;;;5051971;28;20040;-63
2021/11/24 05:26:31;;;;;;;4.53;1.70;;;;;;;;;;5051634;28;20395;-63
2021/11/24 05:28:57;;;;;;;10.07;2.17;;;;;;;;;;5053308;28;20063;-63
2021/11/24 05:31:25;;;;;;;4.17;1.37;;;;;;;;;;5055164;28;20488;-63
2021/11/24 05:33:52;;;;;;;5.90;2.00;;;;;;;;;;5050271;28;20064;-63
2021/11/24 05:36:19;;;;;;;3.60;1.57;;;;;;;;;;5050119;28;20041;-63
2021/11/24 05:38:46;;;;;;;5.27;1.37;;;;;;;;;;5059712;28;20104;-63
2021/11/24 05:41:13;;;;;;;7.57;1.80;;;;;;;;;;5064339;28;20402;-63
2021/11/24 05:43:40;;;;;;;5.47;1.87;;;;;;;;;;5055847;28;20052;-63
2021/11/24 05:46:13;;;;;;;5.37;1.70;;;;;;;;;;5055605;28;20103;-63
2021/11/24 05:48:40;;;;;;;4.03;1.63;;;;;;;;;;5055444;28;20163;-63
2021/11/24 05:51:08;;;;;;;3.17;1.23;;;;;;;;;;5069576;28;20028;-63
2021/11/24 05:53:35;;;;;;;3.20;1.40;;;;;;;;;;5074248;28;20104;-63
2021/11/24 05:56:01;;;;;;;5.30;1.40;;;;;;;;;;5056804;28;20029;-63
2021/11/24 05:58:28;;;;;;;3.33;1.30;;;;;;;;;;5070018;28;20037;-63
2021/11/24 06:00:56;;;;;;;2.73;1.37;;;;;;;;;;5069868;28;20028;-63
2021/11/24 06:03:23;;;;;;;3.47;1.23;;;;;;;;;;5069749;28;20033;-63
2021/11/24 06:05:50;;;;;;;8.43;1.83;;;;;;;;;;5074609;28;20027;-63
2021/11/24 06:08:17;;;;;;;7.43;3.27;;;;;;;;;;5075172;28;20493;-63
2021/11/24 06:10:44;;;;;;;48.07;16.57;;;;;;;;;;5074343;28;20503;-63
2021/11/24 06:13:11;;;;;;;20.10;7.20;;;;;;;;;;5075278;28;20099;-62
2021/11/24 06:15:38;;;;;;;34.63;13.60;;;;;;;;;;5074835;28;20055;-62
2021/11/24 06:18:04;;;;;;;64.07;18.60;;;;;;;;;;5069422;28;20036;-63
2021/11/24 06:20:32;;;;;;;50.83;16.87;;;;;;;;;;5069162;28;20025;-62
2021/11/24 06:22:59;;;;;;;55.00;19.27;;;;;;;;;;5069530;28;20050;-63
2021/11/24 06:25:26;;;;;;;55.50;19.57;;;;;;;;;;5068866;28;20024;-63
2021/11/24 06:27:52;;;;;;;40.87;15.87;;;;;;;;;;5074409;28;20029;-62
2021/11/24 06:30:19;;;;;;;59.53;21.40;;;;;;;;;;5074468;28;20486;-62
2021/11/24 06:32:47;;;;;;;50.03;19.20;;;;;;;;;;5074686;28;20032;-62
2021/11/24 06:35:15;;;;;;;53.13;17.23;;;;;;;;;;5056543;28;20364;-63
2021/11/24 06:37:42;;;;;;;49.40;19.73;;;;;;;;;;5074359;28;20020;-62
2021/11/24 06:40:09;;;;;;;53.47;19.40;;;;;;;;;;5067920;28;20028;-62
2021/11/24 06:42:36;;;;;;;54.27;18.27;;;;;;;;;;5068016;28;20558;-63
2021/11/24 06:45:03;;;;;;;54.20;18.03;;;;;;;;;;5069108;28;20017;-62
2021/11/24 06:47:29;;;;;;;40.93;13.97;;;;;;;;;;5068876;28;20503;-63
2021/11/24 06:49:56;;;;;;;42.83;17.00;;;;;;;;;;5073814;28;20142;-62
2021/11/24 06:52:23;;;;;;;40.73;15.63;;;;;;;;;;5074818;28;20476;-62
2021/11/24 06:54:50;;;;;;;36.37;12.40;;;;;;;;;;5074233;28;20025;-62
2021/11/24 06:57:16;;;;;;;31.43;12.07;;;;;;;;;;5073957;28;20043;-62
2021/11/24 06:59:43;;;;;;;19.90;7.23;;;;;;;;;;5073618;28;20016;-62
2021/11/24 07:02:10;;;;;;;21.07;7.83;;;;;;;;;;5068853;28;20050;-62
2021/11/24 07:04:38;;;;;;;25.50;9.10;;;;;;;;;;5068998;28;20030;-62
2021/11/24 07:07:05;;;;;;;26.13;8.80;;;;;;;;;;5068359;28;20266;-63
2021/11/24 07:09:31;;;;;;;21.77;7.93;;;;;;;;;;5067878;28;20296;-62
2021/11/24 07:11:58;;;;;;;22.77;8.93;;;;;;;;;;5073105;28;20029;-62
2021/11/24 07:14:25;;;;;;;23.03;7.37;;;;;;;;;;5073107;28;20021;-63
2021/11/24 07:16:52;;;;;;;20.50;7.37;;;;;;;;;;5073615;28;20075;-62
2021/11/24 07:19:22;;;;;;;20.17;7.03;;;;;;;;;;5073775;28;20518;-62
2021/11/24 07:21:49;;;;;;;21.13;6.90;;;;;;;;;;5073885;28;20391;-62
2021/11/24 07:24:16;;;;;;;19.17;7.13;;;;;;;;;;5068710;28;20376;-62
2021/11/24 07:26:43;;;;;;;13.40;5.67;;;;;;;;;;5067911;28;20268;-62
2021/11/24 07:29:10;;;;;;;10.63;4.40;;;;;;;;;;5067777;28;20028;-62
2021/11/24 07:31:37;;;;;;;11.00;4.40;;;;;;;;;;5067597;28;20574;-62
2021/11/24 07:34:03;;;;;;;6.80;2.90;;;;;;;;;;5072254;28;20032;-62
2021/11/24 07:36:30;;;;;;;4.70;2.20;;;;;;;;;;5073259;28;20289;-62
2021/11/24 07:38:57;;;;;;;4.43;2.10;;;;;;;;;;5073652;28;20421;-62
2021/11/24 07:41:24;;;;;;;11.70;2.93;;;;;;;;;;5073481;28;20078;-62
2021/11/24 07:43:51;;;;;;;6.43;3.00;;;;;;;;;;5073029;28;20051;-62
2021/11/24 07:46:17;;;;;;;10.87;3.27;;;;;;;;;;5068492;28;20616;-62
2021/11/24 07:48:44;;;;;;;5.10;2.53;;;;;;;;;;5067812;28;20257;-62
2021/11/24 07:51:16;;;;;;;20.27;5.57;;;;;;;;;;5067470;28;20051;-62
2021/11/24 07:53:44;;;;;;;10.90;3.57;;;;;;;;;;5067664;28;20731;-62
2021/11/24 07:56:11;;;;;;;5.47;2.33;;;;;;;;;;5071421;28;20273;-62
2021/11/24 07:58:40;;;;;;;4.43;1.80;;;;;;;;;;5072752;28;20340;-62
2021/11/24 08:01:08;;;;;;;4.10;1.70;;;;;;;;;;5072147;28;20724;-62
2021/11/24 08:03:35;;;;;;;6.23;1.67;;;;;;;;;;5073249;28;20258;-62
2021/11/24 08:06:01;;;;;;;3.03;1.67;;;;;;;;;;5072460;28;20363;-63
2021/11/24 08:08:28;;;;;;;6.27;2.00;;;;;;;;;;5068168;28;20826;-62
2021/11/24 08:10:55;;;;;;;5.03;2.30;;;;;;;;;;5067301;28;20293;-62
2021/11/24 08:13:22;;;;;;;5.00;2.17;;;;;;;;;;5066901;28;20319;-62
2021/11/24 08:15:49;;;;;;;5.13;2.07;;;;;;;;;;5067038;28;20277;-62
2021/11/24 08:18:16;;;;;;;6.07;1.90;;;;;;;;;;5070628;28;21277;-63
2021/11/24 08:20:42;;;;;;;4.10;1.70;;;;;;;;;;5072503;28;20272;-62
2021/11/24 08:23:09;;;;;;;2.60;1.53;;;;;;;;;;5072744;28;20612;-62
2021/11/24 08:25:36;;;;;;;4.20;1.87;;;;;;;;;;5072415;28;20311;-62
2021/11/24 08:28:03;;;;;;;3.30;1.20;;;;;;;;;;5072510;28;20261;-62
2021/11/24 08:30:30;;;;;;;3.10;1.20;;;;;;;;;;5067986;28;20350;-63
2021/11/24 08:32:57;;;;;;;3.47;1.23;;;;;;;;;;5066738;28;20500;-63
2021/11/24 08:35:25;;;;;;;2.30;1.10;;;;;;;;;;5066748;28;20264;-63
2021/11/24 08:37:52;;;;;;;2.20;1.00;;;;;;;;;;5048012;28;20294;-62
2021/11/24 08:40:19;;;;;;;3.30;1.37;;;;;;;;;;5050216;28;20356;-62
2021/11/24 08:42:46;;;;;;;4.77;1.40;;;;;;;;;;5068611;28;20352;-62
2021/11/24 08:45:13;;;;;;;2.80;1.30;;;;;;;;;;5072273;28;20742;-62
2021/11/24 08:47:40;;;;;;;3.10;1.30;;;;;;;;;;5069673;28;20463;-62
2021/11/24 08:50:08;;;;;;;2.67;1.23;;;;;;;;;;5052451;28;20347;-62
2021/11/24 08:52:35;;;;;;;2.50;1.20;;;;;;;;;;5048604;28;20273;-62
2021/11/24 08:55:01;;;;;;;2.87;1.40;;;;;;;;;;5046597;28;20320;-62
2021/11/24 08:57:28;;;;;;;3.60;1.47;;;;;;;;;;5060529;28;20297;-62
2021/11/24 08:59:55;;;;;;;3.23;1.10;;;;;;;;;;5065702;28;20272;-62
2021/11/24 09:02:24;;;;;;;3.50;1.30;;;;;;;;;;5069520;28;20257;-62
2021/11/24 09:04:51;;;;;;;2.50;1.03;;;;;;;;;;5058882;28;20270;-62
2021/11/24 09:07:17;;;;;;;1.63;0.90;;;;;;;;;;5051975;28;20265;-62
2021/11/24 09:09:44;;;;;;;2.00;1.00;;;;;;;;;;5051819;28;20262;-63
2021/11/24 09:12:11;;;;;;;1.60;0.93;;;;;;;;;;5071613;28;20253;-62
2021/11/24 09:14:38;;;;;;;6.43;1.03;;;;;;;;;;5068350;28;20269;-62
2021/11/24 09:17:05;;;;;;;2.63;1.03;;;;;;;;;;5066198;28;20285;-62
2021/11/24 09:19:32;;;;;;;2.27;0.97;;;;;;;;;;5066333;28;20308;-62
2021/11/24 09:21:59;;;;;;;1.47;0.90;;;;;;;;;;5066441;28;20265;-63
2021/11/24 09:24:26;;;;;;;1.43;0.73;;;;;;;;;;5068959;28;20751;-62
2021/11/24 09:27:00;;;;;;;1.80;0.70;;;;;;;;;;5057325;28;20316;-63
2021/11/24 09:29:27;;;;;;;1.57;0.73;;;;;;;;;;5051734;28;20669;-62
2021/11/24 09:31:55;;;;;;;1.60;0.83;;;;;;;;;;5052010;28;20250;-62
2021/11/24 09:34:23;;;;;;;1.30;0.60;;;;;;;;;;5052580;28;20270;-62
2021/11/24 09:36:49;;;;;;;0.93;0.60;;;;;;;;;;5057110;28;20293;-62
2021/11/24 09:39:16;;;;;;;2.00;0.80;;;;;;;;;;5066086;28;20312;-62
2021/11/24 09:41:45;;;;;;;1.33;0.50;;;;;;;;;;5066214;28;20654;-62
2021/11/24 09:44:12;;;;;;;1.00;0.60;;;;;;;;;;5065940;28;20265;-62
2021/11/24 09:46:43;;;;;;;1.63;0.60;;;;;;;;;;5068687;28;20268;-62
2021/11/24 09:49:11;;;;;;;1.10;0.60;;;;;;;;;;5071730;28;20258;-62
2021/11/24 09:51:40;;;;;;;1.23;0.60;;;;;;;;;;5071106;28;20257;-62
2021/11/24 09:54:07;;;;;;;1.17;0.70;;;;;;;;;;5071741;28;20257;-62
2021/11/24 09:56:34;;;;;;;3.00;0.80;;;;;;;;;;5070623;28;20368;-63
2021/11/24 09:59:00;;;;;;;1.47;0.60;;;;;;;;;;5069173;28;20261;-62
2021/11/24 10:01:27;;;;;;;1.00;0.53;;;;;;;;;;5065515;28;20265;-62
2021/11/24 10:03:54;;;;;;;1.27;0.50;;;;;;;;;;5066267;28;20260;-62
2021/11/24 10:06:24;;;;;;;1.23;0.53;;;;;;;;;;5065381;28;20291;-62
2021/11/24 10:08:51;;;;;;;1.57;0.70;;;;;;;;;;5068549;28;20278;-62
2021/11/24 10:11:19;;;;;;;1.93;0.63;;;;;;;;;;5071121;28;20257;-62
2021/11/24 10:13:49;;;;;;;0.90;0.57;;;;;;;;;;5071305;28;20270;-62
2021/11/24 10:16:25;;;;;;;1.27;0.73;;;;;;;;;;5072545;28;20261;-62
2021/11/24 10:18:51;;;;;;;;;;;;;;;;;;5075511;28;20336;-62
2021/11/24 10:21:20;;;;;;;1.20;0.70;;;;;;;;;;5071315;28;20668;-62
2021/11/24 10:23:48;;;;;;;2.63;0.63;;;;;;;;;;5068577;28;20672;-62
2021/11/24 10:26:20;;;;;;;1.43;0.40;;;;;;;;;;5069169;28;20361;-62
2021/11/24 10:28:50;;;;;;;2.27;0.80;;;;;;;;;;5069296;28;20281;-63
2021/11/24 10:31:28;;;;;;;1.20;0.60;;;;;;;;;;5068062;28;20254;-62
2021/11/24 10:33:56;;;;;;;1.47;0.73;;;;;;;;;;5070489;28;20297;-62
2021/11/24 10:36:22;;;;;;;1.67;0.70;;;;;;;;;;5074416;28;20273;-63
2021/11/24 10:38:51;;;;;;;2.80;0.83;;;;;;;;;;5073874;28;20341;-62
2021/11/24 10:41:27;;;;;;;2.77;0.57;;;;;;;;;;5074139;28;20257;-62
2021/11/24 10:43:54;;;;;;;0.83;0.50;;;;;;;;;;5069963;28;20257;-62
2021/11/24 10:46:24;;;;;;;0.40;0.30;;;;;;;;;;5068700;28;20257;-62
2021/11/24 10:49:00;;;;;;;1.17;0.40;;;;;;;;;;5068986;28;20340;-62
2021/11/24 10:51:34;;;;;;;2.10;0.60;;;;;;;;;;5050765;28;20254;-62
2021/11/24 10:54:06;;;;;;;0.97;0.33;;;;;;;;;;5072943;28;20269;-62
2021/11/24 10:56:33;;;;;;;1.37;0.60;;;;;;;;;;5074162;28;20270;-62
2021/11/24 10:59:16;;;;;;;1.30;0.50;;;;;;;;;;5074150;28;20258;-62
2021/11/24 11:01:44;;;;;;;0.90;0.60;;;;;;;;;;5074348;28;20253;-62
2021/11/24 11:04:12;;;;;;;1.23;0.43;;;;;;;;;;5073816;28;20265;-62
2021/11/24 11:06:40;;;;;;;0.30;0.30;;;;;;;;;;5068095;28;20273;-62
2021/11/24 11:09:07;;;;;;;0.57;0.33;;;;;;;;;;5067863;28;20771;-62
2021/11/24 11:11:34;;;;;;;0.57;0.40;;;;;;;;;;5068502;28;20260;-62
2021/11/24 11:14:14;;;;;;;0.60;0.50;;;;;;;;;;5068335;28;20316;-63
2021/11/24 11:16:45;;;;;;;1.20;0.60;;;;;;;;;;5073840;28;20694;-62
2021/11/24 11:19:14;;;;;;;0.30;0.30;;;;;;;;;;5073795;28;20261;-62
2021/11/24 11:21:41;;;;;;;0.60;0.40;;;;;;;;;;5073869;28;20265;-62
2021/11/24 11:24:08;;;;;;;0.80;0.50;;;;;;;;;;5073407;28;20277;-62
2021/11/24 11:26:35;;;;;;;0.50;0.37;;;;;;;;;;5072862;28;20268;-62
2021/11/24 11:29:02;;;;;;;0.40;0.40;;;;;;;;;;5067823;28;20277;-62
2021/11/24 11:31:29;;;;;;;1.83;0.50;;;;;;;;;;5067959;28;20297;-62
2021/11/24 11:34:01;;;;;;;1.50;0.63;;;;;;;;;;5068044;28;20261;-62
2021/11/24 11:36:28;;;;;;;0.47;0.33;;;;;;;;;;5068062;28;20792;-62
2021/11/24 11:38:56;;;;;;;1.10;0.53;;;;;;;;;;5061336;28;20257;-62
2021/11/24 11:41:43;;;;;;;1.07;0.47;;;;;;;;;;5073535;28;20736;-62
2021/11/24 11:44:13;;;;;;;0.30;0.30;;;;;;;;;;5072991;28;20793;-62
2021/11/24 11:46:45;;;;;;;2.77;0.47;;;;;;;;;;5073417;28;20770;-62
2021/11/24 11:49:14;;;;;;;1.17;0.50;;;;;;;;;;5071097;28;20277;-62
2021/11/24 11:51:42;;;;;;;0.70;0.43;;;;;;;;;;5067724;28;20261;-62
2021/11/24 11:54:09;;;;;;;0.30;0.30;;;;;;;;;;5067446;28;20273;-62
2021/11/24 11:56:44;;;;;;;0.70;0.50;;;;;;;;;;5067318;28;20735;-62
2021/11/24 11:59:22;;;;;;;0.47;0.28;;;;;;;;;;5068625;28;20269;-62
2021/11/24 12:01:49;;;;;;;1.33;0.40;;;;;;;;;;5072589;28;20478;-62
2021/11/24 12:04:17;;;;;;;0.73;0.50;;;;;;;;;;5073169;28;20335;-62
2021/11/24 12:06:48;;;;;;;1.07;0.50;;;;;;;;;;5072421;28;20272;-62
2021/11/24 12:09:39;;;;;;;0.93;0.50;;;;;;;;;;5072091;28;20265;-62
2021/11/24 12:12:13;;;;;;;0.73;0.40;;;;;;;;;;5057245;28;20277;-62
2021/11/24 12:14:43;;;;;;;3.38;0.70;;;;;;;;;;5067473;28;20348;-62
2021/11/24 12:17:37;;;;;;;0.57;0.40;;;;;;;;;;5066840;28;20037;-62
2021/11/24 12:22:56;;;;;;;0.80;0.53;;;;;;;;;;5071159;28;20269;-62
2021/11/24 12:25:26;;;;;;;1.13;0.77;;;;;;;;;;5072424;28;20276;-61
2021/11/24 12:27:53;;;;;;;4.27;1.20;;;;;;;;;;5072730;28;20268;-62
2021/11/24 12:30:35;;;;;;;4.27;1.53;;;;;;;;;;5072235;28;20273;-63
2021/11/24 12:33:02;;;;;;;1.83;0.90;;;;;;;;;;5071491;28;20319;-62
2021/11/24 12:35:29;;;;;;;1.20;0.80;;;;;;;;;;5066395;28;20631;-63
2021/11/24 12:37:56;;;;;;;1.37;0.80;;;;;;;;;;5066389;28;20328;-63
2021/11/24 12:40:37;;;;;;;0.97;0.70;;;;;;;;;;5066413;28;20372;-62
2021/11/24 12:43:16;;;;;;;4.93;2.00;;;;;;;;;;5066907;28;20663;-63
2021/11/24 12:46:02;;;;;;;3.37;1.60;;;;;;;;;;5072550;28;20376;-62
2021/11/24 12:48:33;;;;;;;2.90;1.20;;;;;;;;;;5055272;28;20303;-62
2021/11/24 12:51:00;;;;;;;5.17;1.77;;;;;;;;;;5071829;28;20288;-63
2021/11/24 12:53:27;;;;;;;1.60;0.97;;;;;;;;;;5071855;28;20354;-63
2021/11/24 12:56:11;;;;;;;3.20;1.10;;;;;;;;;;5069992;28;20323;-63
2021/11/24 12:58:38;;;;;;;3.07;1.00;;;;;;;;;;5066261;28;20288;-62
2021/11/24 13:01:15;;;;;;;2.93;1.20;;;;;;;;;;5066565;28;20257;-62
2021/11/24 13:03:42;;;;;;;4.93;1.33;;;;;;;;;;5066299;28;20301;-64
2021/11/24 13:06:09;;;;;;;4.73;1.27;;;;;;;;;;5068840;28;20300;-63
2021/11/24 13:08:35;;;;;;;4.17;1.17;;;;;;;;;;5071382;28;20351;-62
2021/11/24 13:11:06;;;;;;;2.13;1.10;;;;;;;;;;5070949;28;20315;-63
2021/11/24 13:13:33;;;;;;;4.43;1.30;;;;;;;;;;5056223;28;20628;-62
2021/11/24 13:16:00;;;;;;;8.77;1.30;;;;;;;;;;5071595;28;20249;-62
2021/11/24 13:18:27;;;;;;;2.53;0.90;;;;;;;;;;5070156;28;20289;-63
2021/11/24 13:20:53;;;;;;;3.37;0.93;;;;;;;;;;5067003;28;20277;-63
2021/11/24 13:23:21;;;;;;;6.77;1.23;;;;;;;;;;5067261;28;20738;-62
2021/11/24 13:25:48;;;;;;;3.33;1.30;;;;;;;;;;5067149;28;20260;-63
2021/11/24 13:28:17;;;;;;;4.03;1.00;;;;;;;;;;5066684;28;20316;-62
2021/11/24 13:30:43;;;;;;;3.60;1.53;;;;;;;;;;5068750;28;20269;-63
2021/11/24 13:33:11;;;;;;;5.97;0.97;;;;;;;;;;5071817;28;20743;-63
2021/11/24 13:35:44;;;;;;;7.37;1.00;;;;;;;;;;5071724;28;20697;-63
2021/11/24 13:38:17;;;;;;;6.57;1.67;;;;;;;;;;5071657;28;20770;-62
2021/11/24 13:40:45;;;;;;;3.87;1.30;;;;;;;;;;5071736;28;20258;-63
2021/11/24 13:43:13;;;;;;;3.30;1.23;;;;;;;;;;5069085;28;20593;-63
2021/11/24 13:45:45;;;;;;;4.03;1.67;;;;;;;;;;5066747;28;20273;-62
2021/11/24 13:48:19;;;;;;;8.67;2.53;;;;;;;;;;5066645;28;20333;-62
2021/11/24 13:50:59;;;;;;;3.37;1.00;;;;;;;;;;5069287;28;20260;-62
2021/11/24 13:53:27;;;;;;;5.47;1.10;;;;;;;;;;5070374;28;20266;-62
2021/11/24 13:56:09;;;;;;;2.93;1.17;;;;;;;;;;5073897;28;20269;-63
2021/11/24 13:58:36;;;;;;;1.43;0.83;;;;;;;;;;5075163;28;20292;-63
2021/11/24 14:01:19;;;;;;;4.73;0.83;;;;;;;;;;5075254;28;20387;-63
2021/11/24 14:03:54;;;;;;;2.47;1.10;;;;;;;;;;5075419;28;20042;-63
2021/11/24 14:06:38;;;;;;;1.15;0.77;;;;;;;;;;5075024;28;20112;-63
2021/11/24 14:09:22;;;;;;;3.97;1.10;;;;;;;;;;5070214;28;20418;-63
2021/11/24 14:11:58;;;;;;;2.30;0.93;;;;;;;;;;5069922;28;20078;-62
2021/11/24 14:14:26;;;;;;;3.07;0.87;;;;;;;;;;5070342;28;20503;-63
2021/11/24 14:17:01;;;;;;;1.77;1.03;;;;;;;;;;5070167;28;20037;-63
2021/11/24 14:19:32;;;;;;;1.35;0.80;;;;;;;;;;5052735;28;20028;-63
2021/11/24 14:21:59;;;;;;;4.03;0.93;;;;;;;;;;5074700;28;20037;-63
2021/11/24 14:24:26;;;;;;;2.63;0.83;;;;;;;;;;5075118;28;20074;-63
2021/11/24 14:26:54;;;;;;;2.30;1.10;;;;;;;;;;5074621;28;20037;-63
2021/11/24 14:29:21;;;;;;;5.73;0.83;;;;;;;;;;5074763;28;20033;-63
2021/11/24 14:31:57;;;;;;;2.47;1.17;;;;;;;;;;5073474;28;20032;-63
2021/11/24 14:34:24;;;;;;;2.93;1.30;;;;;;;;;;5069781;28;20111;-63
2021/11/24 14:36:52;;;;;;;8.37;1.37;;;;;;;;;;5070335;28;20471;-63
2021/11/24 14:39:19;;;;;;;2.07;1.20;;;;;;;;;;5069505;28;20021;-63
2021/11/24 14:41:46;;;;;;;2.97;1.47;;;;;;;;;;5069537;28;20504;-62
2021/11/24 14:44:14;;;;;;;5.37;1.87;;;;;;;;;;5071411;28;20032;-63
2021/11/24 14:46:41;;;;;;;2.33;1.07;;;;;;;;;;5073635;28;20104;-63
2021/11/24 14:49:10;;;;;;;2.97;1.30;;;;;;;;;;5074243;28;20062;-63
2021/11/24 14:51:37;;;;;;;2.57;1.20;;;;;;;;;;5074421;28;20027;-63
2021/11/24 14:54:04;;;;;;;3.07;1.10;;;;;;;;;;5074499;28;20025;-63
2021/11/24 14:56:33;;;;;;;2.40;0.80;;;;;;;;;;5072673;28;20056;-63
2021/11/24 14:58:59;;;;;;;2.33;1.10;;;;;;;;;;5068165;28;20028;-64
2021/11/24 15:01:26;;;;;;;2.50;0.97;;;;;;;;;;5068850;28;20086;-63